sensor_id;sensor_type;location;lat;lon;timestamp;pressure;altitude;pressure_sealevel;temperature;humidity
10988;BME280;5547;42.672;23.230;2023-03-14T00:00:53;93496.22;;;-2.43;93.92
10988;BME280;5547;42.672;23.230;2023-03-14T00:03:54;93499.59;;;-2.22;92.21
10988;BME280;5547;42.672;23.230;2023-03-14T00:06:54;93491.59;;;-2.38;93.02
10988;BME280;5547;42.672;23.230;2023-03-14T00:09:55;93489.94;;;-2.42;92.79
10988;BME280;5547;42.672;23.230;2023-03-14T00:12:55;93456.13;;;-2.72;92.87
10988;BME280;5547;42.672;23.230;2023-03-14T00:16:08;93428.41;;;-2.68;91.19
10988;BME280;5547;42.672;23.230;2023-03-14T00:19:09;93458.28;;;-2.32;89.21
10988;BME280;5547;42.672;23.230;2023-03-14T00:22:09;93420.44;;;-2.50;88.73
10988;BME280;5547;42.672;23.230;2023-03-14T00:25:11;93455.81;;;-2.28;89.65
10988;BME280;5547;42.672;23.230;2023-03-14T00:28:11;93408.75;;;-2.44;86.89
10988;BME280;5547;42.672;23.230;2023-03-14T00:31:14;93469.09;;;-1.88;84.71
10988;BME280;5547;42.672;23.230;2023-03-14T00:34:15;93464.97;;;-1.89;85.17
10988;BME280;5547;42.672;23.230;2023-03-14T00:37:15;93455.28;;;-2.01;84.54
10988;BME280;5547;42.672;23.230;2023-03-14T00:40:16;93397.94;;;-2.34;84.18
10988;BME280;5547;42.672;23.230;2023-03-14T00:43:17;93457.53;;;-1.99;84.34
10988;BME280;5547;42.672;23.230;2023-03-14T00:46:17;93451.66;;;-2.08;84.07
10988;BME280;5547;42.672;23.230;2023-03-14T00:49:18;93439.69;;;-2.22;83.59
10988;BME280;5547;42.672;23.230;2023-03-14T00:52:18;93448.94;;;-2.12;83.24
10988;BME280;5547;42.672;23.230;2023-03-14T00:55:19;93428.75;;;-2.36;83.43
10988;BME280;5547;42.672;23.230;2023-03-14T00:58:20;93402.66;;;-2.48;83.38
10988;BME280;5547;42.672;23.230;2023-03-14T01:01:20;93444.09;;;-2.22;83.35
10988;BME280;5547;42.672;23.230;2023-03-14T01:04:21;93391.78;;;-2.50;84.04
10988;BME280;5547;42.672;23.230;2023-03-14T01:07:22;93400.88;;;-2.57;85.23
10988;BME280;5547;42.672;23.230;2023-03-14T01:10:22;93419.53;;;-2.55;85.98
10988;BME280;5547;42.672;23.230;2023-03-14T01:13:23;93433.75;;;-2.52;85.18
10988;BME280;5547;42.672;23.230;2023-03-14T01:16:25;93426.03;;;-2.61;86.83
10988;BME280;5547;42.672;23.230;2023-03-14T01:19:27;93422.66;;;-2.61;86.68
10988;BME280;5547;42.672;23.230;2023-03-14T01:22:28;93422.59;;;-2.53;85.13
10988;BME280;5547;42.672;23.230;2023-03-14T01:25:28;93387.41;;;-2.80;90.09
10988;BME280;5547;42.672;23.230;2023-03-14T01:28:30;93406.88;;;-2.77;89.91
10988;BME280;5547;42.672;23.230;2023-03-14T01:31:30;93403.03;;;-2.80;90.60
10988;BME280;5547;42.672;23.230;2023-03-14T01:34:30;93394.34;;;-2.84;90.74
10988;BME280;5547;42.672;23.230;2023-03-14T01:37:31;93402.59;;;-2.82;88.63
10988;BME280;5547;42.672;23.230;2023-03-14T01:40:31;93396.06;;;-2.88;88.58
10988;BME280;5547;42.672;23.230;2023-03-14T01:43:32;93350.09;;;-3.26;89.74
10988;BME280;5547;42.672;23.230;2023-03-14T01:46:36;93389.19;;;-2.92;88.53
10988;BME280;5547;42.672;23.230;2023-03-14T01:49:37;93373.53;;;-3.05;87.40
10988;BME280;5547;42.672;23.230;2023-03-14T01:52:44;93377.09;;;-2.88;87.63
10988;BME280;5547;42.672;23.230;2023-03-14T01:55:49;93356.31;;;-3.18;88.53
10988;BME280;5547;42.672;23.230;2023-03-14T01:58:51;93367.97;;;-3.24;89.57
10988;BME280;5547;42.672;23.230;2023-03-14T02:01:54;93371.66;;;-3.25;92.72
10988;BME280;5547;42.672;23.230;2023-03-14T02:04:56;93378.38;;;-3.24;94.97
10988;BME280;5547;42.672;23.230;2023-03-14T02:07:58;93373.75;;;-3.19;95.76
10988;BME280;5547;42.672;23.230;2023-03-14T02:10:59;93316.88;;;-3.50;94.48
10988;BME280;5547;42.672;23.230;2023-03-14T02:14:00;93377.19;;;-3.06;92.60
10988;BME280;5547;42.672;23.230;2023-03-14T02:17:03;93368.13;;;-3.21;92.64
10988;BME280;5547;42.672;23.230;2023-03-14T02:20:30;93344.22;;;-3.44;92.55
10988;BME280;5547;42.672;23.230;2023-03-14T02:30:07;93354.97;;;-3.24;93.02
10988;BME280;5547;42.672;23.230;2023-03-14T02:33:14;93347.53;;;-3.34;91.42
10988;BME280;5547;42.672;23.230;2023-03-14T02:36:16;93338.09;;;-3.39;90.99
10988;BME280;5547;42.672;23.230;2023-03-14T02:39:26;93369.31;;;-3.18;91.06
10988;BME280;5547;42.672;23.230;2023-03-14T02:42:29;93378.41;;;-3.03;91.99
10988;BME280;5547;42.672;23.230;2023-03-14T02:49:17;93379.34;;;-3.08;91.99
10988;BME280;5547;42.672;23.230;2023-03-14T02:52:17;93379.16;;;-3.03;89.62
10988;BME280;5547;42.672;23.230;2023-03-14T02:55:22;93341.50;;;-3.26;89.40
10988;BME280;5547;42.672;23.230;2023-03-14T02:58:22;93382.16;;;-2.92;88.06
10988;BME280;5547;42.672;23.230;2023-03-14T03:01:24;93325.19;;;-3.35;88.06
10988;BME280;5547;42.672;23.230;2023-03-14T03:04:24;93377.94;;;-2.84;88.12
10988;BME280;5547;42.672;23.230;2023-03-14T03:07:25;93364.56;;;-2.95;97.67
10988;BME280;5547;42.672;23.230;2023-03-14T03:10:26;93375.69;;;-2.86;89.72
10988;BME280;5547;42.672;23.230;2023-03-14T03:13:26;93339.09;;;-3.10;90.02
10988;BME280;5547;42.672;23.230;2023-03-14T03:16:27;93349.97;;;-3.08;90.12
10988;BME280;5547;42.672;23.230;2023-03-14T03:19:27;93364.69;;;-2.91;90.99
10988;BME280;5547;42.672;23.230;2023-03-14T03:22:27;93330.50;;;-3.23;91.38
10988;BME280;5547;42.672;23.230;2023-03-14T03:25:28;93385.91;;;-3.02;91.66
10988;BME280;5547;42.672;23.230;2023-03-14T03:28:29;93377.13;;;-2.97;91.18
10988;BME280;5547;42.672;23.230;2023-03-14T03:31:29;93343.09;;;-3.34;94.10
10988;BME280;5547;42.672;23.230;2023-03-14T03:34:30;93344.44;;;-3.28;93.87
10988;BME280;5547;42.672;23.230;2023-03-14T03:37:34;93356.84;;;-3.33;95.73
10988;BME280;5547;42.672;23.230;2023-03-14T03:40:34;93345.47;;;-3.50;98.11
10988;BME280;5547;42.672;23.230;2023-03-14T03:43:35;93357.19;;;-3.35;96.98
10988;BME280;5547;42.672;23.230;2023-03-14T03:46:35;93372.16;;;-3.32;97.45
10988;BME280;5547;42.672;23.230;2023-03-14T03:49:36;93338.31;;;-3.83;98.09
10988;BME280;5547;42.672;23.230;2023-03-14T03:52:36;93376.13;;;-3.64;98.09
10988;BME280;5547;42.672;23.230;2023-03-14T03:55:36;93373.28;;;-3.80;98.52
10988;BME280;5547;42.672;23.230;2023-03-14T03:58:37;93367.66;;;-3.91;100.00
10988;BME280;5547;42.672;23.230;2023-03-14T04:01:38;93350.88;;;-3.93;100.00
10988;BME280;5547;42.672;23.230;2023-03-14T04:04:39;93376.56;;;-3.53;97.74
10988;BME280;5547;42.672;23.230;2023-03-14T04:07:39;93345.28;;;-3.74;97.12
10988;BME280;5547;42.672;23.230;2023-03-14T04:10:40;93377.34;;;-3.62;98.40
10988;BME280;5547;42.672;23.230;2023-03-14T04:13:40;93370.53;;;-3.84;99.52
10988;BME280;5547;42.672;23.230;2023-03-14T04:16:40;93363.28;;;-3.99;100.00
10988;BME280;5547;42.672;23.230;2023-03-14T04:19:41;93332.72;;;-4.02;99.75
10988;BME280;5547;42.672;23.230;2023-03-14T04:22:42;93317.31;;;-4.16;99.91
10988;BME280;5547;42.672;23.230;2023-03-14T04:25:42;93361.06;;;-3.80;100.00
10988;BME280;5547;42.672;23.230;2023-03-14T04:28:43;93354.25;;;-3.63;98.82
10988;BME280;5547;42.672;23.230;2023-03-14T04:31:44;93350.09;;;-3.55;98.76
10988;BME280;5547;42.672;23.230;2023-03-14T04:34:47;93346.72;;;-3.56;98.51
10988;BME280;5547;42.672;23.230;2023-03-14T04:37:48;93340.94;;;-3.62;98.04
10988;BME280;5547;42.672;23.230;2023-03-14T04:40:49;93339.28;;;-3.66;100.00
10988;BME280;5547;42.672;23.230;2023-03-14T04:43:50;93332.13;;;-3.69;99.67
10988;BME280;5547;42.672;23.230;2023-03-14T04:46:50;93311.50;;;-3.74;98.21
10988;BME280;5547;42.672;23.230;2023-03-14T04:49:51;93306.28;;;-3.74;97.62
10988;BME280;5547;42.672;23.230;2023-03-14T04:52:51;93316.38;;;-3.73;98.14
10988;BME280;5547;42.672;23.230;2023-03-14T04:55:54;93319.44;;;-3.71;100.00
10988;BME280;5547;42.672;23.230;2023-03-14T04:58:54;93324.59;;;-3.62;100.00
10988;BME280;5547;42.672;23.230;2023-03-14T05:01:55;93326.88;;;-3.61;100.00
10988;BME280;5547;42.672;23.230;2023-03-14T05:04:55;93285.44;;;-3.87;100.00
10988;BME280;5547;42.672;23.230;2023-03-14T05:07:55;93325.75;;;-3.51;100.00
10988;BME280;5547;42.672;23.230;2023-03-14T05:10:57;93313.56;;;-3.59;100.00
10988;BME280;5547;42.672;23.230;2023-03-14T05:13:57;93334.59;;;-3.22;100.00
10988;BME280;5547;42.672;23.230;2023-03-14T05:16:58;93324.41;;;-3.06;99.73
10988;BME280;5547;42.672;23.230;2023-03-14T05:19:58;93284.38;;;-3.14;99.13
10988;BME280;5547;42.672;23.230;2023-03-14T05:22:59;93286.84;;;-2.84;97.04
10988;BME280;5547;42.672;23.230;2023-03-14T05:25:59;93318.66;;;-2.45;95.19
10988;BME280;5547;42.672;23.230;2023-03-14T05:28:59;93318.94;;;-2.14;93.96
10988;BME280;5547;42.672;23.230;2023-03-14T05:32:00;93321.81;;;-1.82;92.11
10988;BME280;5547;42.672;23.230;2023-03-14T05:35:00;93322.56;;;-1.44;89.15
10988;BME280;5547;42.672;23.230;2023-03-14T05:38:01;93300.47;;;-1.35;88.53
10988;BME280;5547;42.672;23.230;2023-03-14T05:41:01;93323.91;;;-0.98;85.12
10988;BME280;5547;42.672;23.230;2023-03-14T05:44:02;93295.22;;;-0.54;80.36
10988;BME280;5547;42.672;23.230;2023-03-14T05:47:02;93299.91;;;-0.31;80.99
10988;BME280;5547;42.672;23.230;2023-03-14T05:50:03;93281.34;;;-0.42;79.60
10988;BME280;5547;42.672;23.230;2023-03-14T05:53:04;93332.16;;;0.20;77.24
10988;BME280;5547;42.672;23.230;2023-03-14T05:56:05;93337.75;;;0.19;76.38
10988;BME280;5547;42.672;23.230;2023-03-14T05:59:06;93331.66;;;0.31;76.18
10988;BME280;5547;42.672;23.230;2023-03-14T06:02:09;93307.59;;;0.09;74.90
10988;BME280;5547;42.672;23.230;2023-03-14T06:05:09;93316.47;;;0.36;74.33
10988;BME280;5547;42.672;23.230;2023-03-14T06:08:09;93312.47;;;0.58;74.60
10988;BME280;5547;42.672;23.230;2023-03-14T06:11:10;93285.78;;;0.53;73.68
10988;BME280;5547;42.672;23.230;2023-03-14T06:14:10;93321.66;;;0.68;74.21
10988;BME280;5547;42.672;23.230;2023-03-14T06:17:11;93309.72;;;0.51;74.05
10988;BME280;5547;42.672;23.230;2023-03-14T06:20:12;93299.81;;;0.60;73.84
10988;BME280;5547;42.672;23.230;2023-03-14T06:23:12;93297.41;;;0.71;75.11
10988;BME280;5547;42.672;23.230;2023-03-14T06:26:12;93335.47;;;1.39;71.87
10988;BME280;5547;42.672;23.230;2023-03-14T06:29:13;93344.22;;;1.28;72.20
10988;BME280;5547;42.672;23.230;2023-03-14T06:32:13;93303.81;;;1.09;72.24
10988;BME280;5547;42.672;23.230;2023-03-14T06:35:14;93310.16;;;1.66;69.24
10988;BME280;5547;42.672;23.230;2023-03-14T06:38:14;93272.16;;;1.37;69.17
10988;BME280;5547;42.672;23.230;2023-03-14T06:41:15;93294.44;;;1.89;68.55
10988;BME280;5547;42.672;23.230;2023-03-14T06:44:15;93336.00;;;2.10;68.61
10988;BME280;5547;42.672;23.230;2023-03-14T06:47:15;93284.63;;;2.09;66.89
10988;BME280;5547;42.672;23.230;2023-03-14T06:50:16;93306.72;;;2.55;63.73
10988;BME280;5547;42.672;23.230;2023-03-14T06:53:17;93310.41;;;2.27;66.19
10988;BME280;5547;42.672;23.230;2023-03-14T06:56:17;93300.44;;;2.36;65.20
10988;BME280;5547;42.672;23.230;2023-03-14T06:59:17;93284.69;;;2.36;65.26
10988;BME280;5547;42.672;23.230;2023-03-14T07:02:18;93307.28;;;2.44;67.40
10988;BME280;5547;42.672;23.230;2023-03-14T07:05:18;93291.13;;;2.42;67.11
10988;BME280;5547;42.672;23.230;2023-03-14T07:08:19;93204.50;;;1.89;65.88
10988;BME280;5547;42.672;23.230;2023-03-14T07:11:19;93280.53;;;2.12;66.39
10988;BME280;5547;42.672;23.230;2023-03-14T07:14:19;93278.13;;;2.26;65.84
10988;BME280;5547;42.672;23.230;2023-03-14T07:17:20;93277.28;;;1.96;66.27
10988;BME280;5547;42.672;23.230;2023-03-14T07:20:20;93278.81;;;2.20;66.96
10988;BME280;5547;42.672;23.230;2023-03-14T07:23:20;93303.97;;;2.74;64.71
10988;BME280;5547;42.672;23.230;2023-03-14T07:26:21;93306.41;;;2.60;63.37
10988;BME280;5547;42.672;23.230;2023-03-14T07:29:21;93297.22;;;2.73;65.23
10988;BME280;5547;42.672;23.230;2023-03-14T07:32:22;93293.75;;;2.95;64.02
10988;BME280;5547;42.672;23.230;2023-03-14T07:35:22;93260.97;;;3.16;63.75
10988;BME280;5547;42.672;23.230;2023-03-14T07:38:23;93294.50;;;3.60;62.59
10988;BME280;5547;42.672;23.230;2023-03-14T07:41:23;93286.66;;;3.30;63.09
10988;BME280;5547;42.672;23.230;2023-03-14T07:44:24;93274.66;;;3.32;63.05
10988;BME280;5547;42.672;23.230;2023-03-14T07:47:24;93277.00;;;3.75;61.99
10988;BME280;5547;42.672;23.230;2023-03-14T07:50:25;93290.41;;;4.04;62.50
10988;BME280;5547;42.672;23.230;2023-03-14T07:53:26;93280.59;;;3.97;61.17
10988;BME280;5547;42.672;23.230;2023-03-14T07:56:26;93291.66;;;3.76;60.64
10988;BME280;5547;42.672;23.230;2023-03-14T07:59:27;93276.25;;;3.74;61.75
10988;BME280;5547;42.672;23.230;2023-03-14T08:02:28;93278.97;;;4.30;58.99
10988;BME280;5547;42.672;23.230;2023-03-14T08:05:28;93266.94;;;4.29;59.41
10988;BME280;5547;42.672;23.230;2023-03-14T08:08:28;93278.75;;;4.01;59.79
10988;BME280;5547;42.672;23.230;2023-03-14T08:11:29;93276.28;;;4.22;59.66
10988;BME280;5547;42.672;23.230;2023-03-14T08:14:29;93280.09;;;4.29;61.14
10988;BME280;5547;42.672;23.230;2023-03-14T08:17:31;93270.41;;;4.43;59.71
10988;BME280;5547;42.672;23.230;2023-03-14T08:20:31;93277.16;;;4.93;60.41
10988;BME280;5547;42.672;23.230;2023-03-14T08:23:32;93274.59;;;5.11;57.70
10988;BME280;5547;42.672;23.230;2023-03-14T08:26:32;93286.47;;;4.79;57.50
10988;BME280;5547;42.672;23.230;2023-03-14T08:29:33;93273.00;;;4.36;58.32
10988;BME280;5547;42.672;23.230;2023-03-14T08:32:33;93257.63;;;4.42;58.57
10988;BME280;5547;42.672;23.230;2023-03-14T08:35:34;93263.84;;;4.75;57.01
10988;BME280;5547;42.672;23.230;2023-03-14T08:38:34;93274.56;;;5.07;56.65
10988;BME280;5547;42.672;23.230;2023-03-14T08:41:35;93261.78;;;5.09;58.36
10988;BME280;5547;42.672;23.230;2023-03-14T08:44:41;93257.31;;;5.24;57.13
10988;BME280;5547;42.672;23.230;2023-03-14T08:47:42;93253.13;;;5.09;56.10
10988;BME280;5547;42.672;23.230;2023-03-14T08:50:43;93243.06;;;5.39;55.88
10988;BME280;5547;42.672;23.230;2023-03-14T08:53:43;93246.13;;;5.63;55.61
10988;BME280;5547;42.672;23.230;2023-03-14T08:56:44;93233.66;;;5.49;54.05
10988;BME280;5547;42.672;23.230;2023-03-14T08:59:44;93209.22;;;5.66;54.01
10988;BME280;5547;42.672;23.230;2023-03-14T09:02:45;93189.59;;;5.89;52.65
10988;BME280;5547;42.672;23.230;2023-03-14T09:05:45;93180.56;;;5.68;54.92
10988;BME280;5547;42.672;23.230;2023-03-14T09:08:46;93213.75;;;6.38;53.01
10988;BME280;5547;42.672;23.230;2023-03-14T09:11:46;93201.66;;;6.69;53.54
10988;BME280;5547;42.672;23.230;2023-03-14T09:14:47;93173.00;;;6.42;52.65
10988;BME280;5547;42.672;23.230;2023-03-14T09:17:47;93160.47;;;6.75;50.96
10988;BME280;5547;42.672;23.230;2023-03-14T09:20:48;93163.19;;;6.50;52.44
10988;BME280;5547;42.672;23.230;2023-03-14T09:23:48;93178.22;;;6.71;51.21
10988;BME280;5547;42.672;23.230;2023-03-14T09:26:49;93163.91;;;6.58;50.58
10988;BME280;5547;42.672;23.230;2023-03-14T09:29:49;93183.47;;;6.89;50.36
10988;BME280;5547;42.672;23.230;2023-03-14T09:32:49;93157.75;;;7.00;53.20
10988;BME280;5547;42.672;23.230;2023-03-14T09:35:50;93185.78;;;7.57;47.60
10988;BME280;5547;42.672;23.230;2023-03-14T09:38:50;93181.00;;;7.93;46.77
10988;BME280;5547;42.672;23.230;2023-03-14T09:41:52;93175.72;;;7.90;46.35
10988;BME280;5547;42.672;23.230;2023-03-14T09:45:01;93159.31;;;7.61;45.70
10988;BME280;5547;42.672;23.230;2023-03-14T09:48:04;93160.25;;;7.88;45.86
10988;BME280;5547;42.672;23.230;2023-03-14T09:51:07;93148.91;;;7.84;45.10
10988;BME280;5547;42.672;23.230;2023-03-14T09:54:42;93150.25;;;8.07;44.97
10988;BME280;5547;42.672;23.230;2023-03-14T09:57:45;93146.47;;;8.08;45.92
10988;BME280;5547;42.672;23.230;2023-03-14T10:00:46;93140.56;;;8.31;44.78
10988;BME280;5547;42.672;23.230;2023-03-14T10:03:46;93100.75;;;8.41;43.33
10988;BME280;5547;42.672;23.230;2023-03-14T10:06:47;93134.66;;;8.92;41.33
10988;BME280;5547;42.672;23.230;2023-03-14T10:09:50;93092.28;;;8.54;43.50
10988;BME280;5547;42.672;23.230;2023-03-14T10:13:19;93118.97;;;9.04;42.93
10988;BME280;5547;42.672;23.230;2023-03-14T10:16:28;93124.50;;;9.44;41.56
10988;BME280;5547;42.672;23.230;2023-03-14T10:19:29;93098.41;;;9.12;42.40
10988;BME280;5547;42.672;23.230;2023-03-14T10:22:30;93089.19;;;9.20;42.18
10988;BME280;5547;42.672;23.230;2023-03-14T10:25:36;93047.97;;;9.39;42.36
10988;BME280;5547;42.672;23.230;2023-03-14T10:31:52;93076.41;;;9.66;40.58
10988;BME280;5547;42.672;23.230;2023-03-14T10:35:18;93069.53;;;9.92;40.78
10988;BME280;5547;42.672;23.230;2023-03-14T10:38:19;92999.69;;;9.24;42.16
10988;BME280;5547;42.672;23.230;2023-03-14T10:41:25;93046.66;;;9.75;43.09
10988;BME280;5547;42.672;23.230;2023-03-14T10:44:26;93036.81;;;9.75;41.35
10988;BME280;5547;42.672;23.230;2023-03-14T10:47:27;93035.66;;;9.53;42.33
10988;BME280;5547;42.672;23.230;2023-03-14T10:50:31;93032.91;;;10.03;41.99
10988;BME280;5547;42.672;23.230;2023-03-14T10:53:49;93026.63;;;9.94;40.23
10988;BME280;5547;42.672;23.230;2023-03-14T10:57:04;93019.44;;;10.34;39.70
10988;BME280;5547;42.672;23.230;2023-03-14T11:00:28;92999.63;;;9.75;40.19
10988;BME280;5547;42.672;23.230;2023-03-14T11:03:35;93006.84;;;10.38;40.81
10988;BME280;5547;42.672;23.230;2023-03-14T11:10:14;92922.94;;;9.77;39.81
10988;BME280;5547;42.672;23.230;2023-03-14T11:13:23;92982.13;;;9.78;41.38
10988;BME280;5547;42.672;23.230;2023-03-14T11:26:26;92959.75;;;10.75;38.26
10988;BME280;5547;42.672;23.230;2023-03-14T11:32:55;92931.25;;;11.08;38.43
10988;BME280;5547;42.672;23.230;2023-03-14T11:36:11;92925.84;;;11.28;38.66
10988;BME280;5547;42.672;23.230;2023-03-14T11:39:17;92931.75;;;11.20;38.99
10988;BME280;5547;42.672;23.230;2023-03-14T11:42:18;92911.03;;;10.94;38.35
10988;BME280;5547;42.672;23.230;2023-03-14T11:45:25;92876.97;;;10.73;38.91
10988;BME280;5547;42.672;23.230;2023-03-14T11:51:46;92911.78;;;10.79;40.47
10988;BME280;5547;42.672;23.230;2023-03-14T11:54:58;92910.97;;;11.14;37.96
10988;BME280;5547;42.672;23.230;2023-03-14T11:58:12;92868.06;;;10.96;39.51
10988;BME280;5547;42.672;23.230;2023-03-14T12:01:16;92891.47;;;11.34;38.92
10988;BME280;5547;42.672;23.230;2023-03-14T12:11:15;92870.19;;;11.63;39.54
10988;BME280;5547;42.672;23.230;2023-03-14T12:17:40;92853.06;;;11.48;39.02
10988;BME280;5547;42.672;23.230;2023-03-14T12:20:51;92847.25;;;11.53;38.93
10988;BME280;5547;42.672;23.230;2023-03-14T12:23:55;92841.75;;;12.02;39.46
10988;BME280;5547;42.672;23.230;2023-03-14T12:27:02;92842.19;;;12.13;37.41
10988;BME280;5547;42.672;23.230;2023-03-14T12:30:15;92817.06;;;11.43;37.90
10988;BME280;5547;42.672;23.230;2023-03-14T12:36:51;92822.56;;;11.65;39.29
10988;BME280;5547;42.672;23.230;2023-03-14T12:40:29;92816.94;;;12.18;38.01
10988;BME280;5547;42.672;23.230;2023-03-14T12:43:33;92803.91;;;12.46;35.81
10988;BME280;5547;42.672;23.230;2023-03-14T12:46:34;92788.56;;;12.11;37.33
10988;BME280;5547;42.672;23.230;2023-03-14T12:49:35;92767.91;;;11.73;37.42
10988;BME280;5547;42.672;23.230;2023-03-14T13:05:17;92778.41;;;12.57;37.68
10988;BME280;5547;42.672;23.230;2023-03-14T13:11:33;92744.75;;;12.73;36.49
10988;BME280;5547;42.672;23.230;2023-03-14T13:14:34;92765.31;;;12.85;37.57
10988;BME280;5547;42.672;23.230;2023-03-14T13:17:35;92754.47;;;12.67;36.43
10988;BME280;5547;42.672;23.230;2023-03-14T13:20:56;92719.59;;;12.61;35.95
10988;BME280;5547;42.672;23.230;2023-03-14T13:24:01;92745.63;;;12.70;35.26
10988;BME280;5547;42.672;23.230;2023-03-14T13:27:02;92709.28;;;12.50;35.45
10988;BME280;5547;42.672;23.230;2023-03-14T13:33:19;92722.72;;;12.81;34.72
10988;BME280;5547;42.672;23.230;2023-03-14T13:36:22;92697.44;;;12.51;35.62
10988;BME280;5547;42.672;23.230;2023-03-14T13:39:24;92695.47;;;12.65;36.04
10988;BME280;5547;42.672;23.230;2023-03-14T13:42:27;92684.75;;;12.77;34.96
10988;BME280;5547;42.672;23.230;2023-03-14T13:45:28;92689.75;;;12.75;36.01
10988;BME280;5547;42.672;23.230;2023-03-14T13:48:30;92688.00;;;12.94;35.76
10988;BME280;5547;42.672;23.230;2023-03-14T13:51:32;92647.56;;;12.61;36.24
10988;BME280;5547;42.672;23.230;2023-03-14T13:54:33;92682.38;;;12.79;35.72
10988;BME280;5547;42.672;23.230;2023-03-14T14:01:01;92666.69;;;12.59;35.90
10988;BME280;5547;42.672;23.230;2023-03-14T14:04:07;92661.34;;;12.59;35.95
10988;BME280;5547;42.672;23.230;2023-03-14T14:07:10;92629.59;;;12.52;35.11
10988;BME280;5547;42.672;23.230;2023-03-14T14:10:13;92640.28;;;12.61;36.03
10988;BME280;5547;42.672;23.230;2023-03-14T14:13:17;92609.09;;;12.49;35.76
10988;BME280;5547;42.672;23.230;2023-03-14T14:16:23;92638.78;;;12.73;34.77
10988;BME280;5547;42.672;23.230;2023-03-14T14:19:27;92633.38;;;12.64;35.06
10988;BME280;5547;42.672;23.230;2023-03-14T14:22:29;92615.63;;;12.70;34.78
10988;BME280;5547;42.672;23.230;2023-03-14T14:25:30;92560.53;;;12.32;35.38
10988;BME280;5547;42.672;23.230;2023-03-14T14:28:31;92615.75;;;12.67;35.05
10988;BME280;5547;42.672;23.230;2023-03-14T14:31:32;92608.06;;;12.69;35.08
10988;BME280;5547;42.672;23.230;2023-03-14T14:35:22;92589.31;;;12.59;34.29
10988;BME280;5547;42.672;23.230;2023-03-14T14:38:24;92559.66;;;12.35;34.93
10988;BME280;5547;42.672;23.230;2023-03-14T14:41:29;92587.31;;;12.51;34.64
10988;BME280;5547;42.672;23.230;2023-03-14T14:44:33;92567.47;;;12.52;34.68
10988;BME280;5547;42.672;23.230;2023-03-14T14:47:34;92574.38;;;12.62;35.53
10988;BME280;5547;42.672;23.230;2023-03-14T14:53:47;92541.47;;;12.21;36.24
10988;BME280;5547;42.672;23.230;2023-03-14T14:56:51;92574.66;;;12.20;35.39
10988;BME280;5547;42.672;23.230;2023-03-14T14:59:55;92554.09;;;12.08;34.04
10988;BME280;5547;42.672;23.230;2023-03-14T15:02:59;92550.09;;;12.25;34.59
10988;BME280;5547;42.672;23.230;2023-03-14T15:06:01;92557.41;;;12.12;35.45
10988;BME280;5547;42.672;23.230;2023-03-14T15:09:02;92510.34;;;11.83;35.93
10988;BME280;5547;42.672;23.230;2023-03-14T15:12:03;92563.63;;;11.96;35.40
10988;BME280;5547;42.672;23.230;2023-03-14T15:15:06;92550.84;;;11.91;35.19
10988;BME280;5547;42.672;23.230;2023-03-14T15:18:16;92544.34;;;11.79;35.88
10988;BME280;5547;42.672;23.230;2023-03-14T15:21:16;92546.72;;;11.64;36.09
10988;BME280;5547;42.672;23.230;2023-03-14T15:24:17;92457.88;;;11.10;35.83
10988;BME280;5547;42.672;23.230;2023-03-14T15:27:18;92500.75;;;11.51;35.42
10988;BME280;5547;42.672;23.230;2023-03-14T15:30:19;92524.16;;;11.43;36.00
10988;BME280;5547;42.672;23.230;2023-03-14T15:33:20;92529.16;;;11.41;35.33
10988;BME280;5547;42.672;23.230;2023-03-14T15:36:24;92536.63;;;11.33;35.25
10988;BME280;5547;42.672;23.230;2023-03-14T15:39:24;92529.63;;;11.14;35.16
10988;BME280;5547;42.672;23.230;2023-03-14T15:42:25;92450.97;;;10.62;34.09
10988;BME280;5547;42.672;23.230;2023-03-14T15:45:25;92513.53;;;11.18;34.14
10988;BME280;5547;42.672;23.230;2023-03-14T15:48:26;92519.09;;;10.98;34.55
10988;BME280;5547;42.672;23.230;2023-03-14T15:51:26;92513.72;;;10.72;34.20
10988;BME280;5547;42.672;23.230;2023-03-14T15:54:27;92519.00;;;10.46;35.54
10988;BME280;5547;42.672;23.230;2023-03-14T15:57:28;92521.91;;;10.23;36.76
10988;BME280;5547;42.672;23.230;2023-03-14T16:00:29;92507.50;;;10.07;35.53
10988;BME280;5547;42.672;23.230;2023-03-14T16:03:29;92518.94;;;9.92;36.37
10988;BME280;5547;42.672;23.230;2023-03-14T16:06:30;92517.28;;;9.81;36.07
10988;BME280;5547;42.672;23.230;2023-03-14T16:09:33;92516.97;;;9.63;37.13
10988;BME280;5547;42.672;23.230;2023-03-14T16:12:33;92483.25;;;9.14;37.54
10988;BME280;5547;42.672;23.230;2023-03-14T16:15:34;92507.28;;;9.07;38.67
10988;BME280;5547;42.672;23.230;2023-03-14T16:18:36;92529.06;;;9.15;38.62
10988;BME280;5547;42.672;23.230;2023-03-14T16:21:37;92526.13;;;8.76;38.73
10988;BME280;5547;42.672;23.230;2023-03-14T16:24:37;92526.25;;;8.53;39.74
10988;BME280;5547;42.672;23.230;2023-03-14T16:27:38;92502.56;;;8.22;40.35
10988;BME280;5547;42.672;23.230;2023-03-14T16:30:39;92518.94;;;8.17;40.95
10988;BME280;5547;42.672;23.230;2023-03-14T16:33:40;92495.59;;;8.52;39.60
10988;BME280;5547;42.672;23.230;2023-03-14T16:36:40;92520.72;;;8.63;40.02
10988;BME280;5547;42.672;23.230;2023-03-14T16:39:41;92532.50;;;8.23;41.64
10988;BME280;5547;42.672;23.230;2023-03-14T16:42:41;92506.78;;;7.79;42.47
10988;BME280;5547;42.672;23.230;2023-03-14T16:45:41;92496.75;;;7.47;42.95
10988;BME280;5547;42.672;23.230;2023-03-14T16:48:42;92518.81;;;7.37;43.50
10988;BME280;5547;42.672;23.230;2023-03-14T16:51:43;92506.41;;;7.34;44.22
10988;BME280;5547;42.672;23.230;2023-03-14T16:54:43;92513.88;;;7.15;43.77
10988;BME280;5547;42.672;23.230;2023-03-14T16:57:44;92522.38;;;7.27;43.11
10988;BME280;5547;42.672;23.230;2023-03-14T17:00:44;92511.78;;;7.03;44.51
10988;BME280;5547;42.672;23.230;2023-03-14T17:03:47;92522.47;;;6.96;46.39
10988;BME280;5547;42.672;23.230;2023-03-14T17:06:48;92509.34;;;6.62;46.03
10988;BME280;5547;42.672;23.230;2023-03-14T17:09:49;92490.69;;;6.45;46.99
10988;BME280;5547;42.672;23.230;2023-03-14T17:12:50;92456.88;;;6.06;48.04
10988;BME280;5547;42.672;23.230;2023-03-14T17:15:53;92513.03;;;6.06;49.99
10988;BME280;5547;42.672;23.230;2023-03-14T17:18:54;92501.16;;;5.87;48.04
10988;BME280;5547;42.672;23.230;2023-03-14T17:21:54;92509.50;;;5.82;50.09
10988;BME280;5547;42.672;23.230;2023-03-14T17:24:54;92529.91;;;5.75;48.31